Coruco, New Mexico
Current Conditions -  °F | °C
As of 3:53 PM on Monday 20 Oct 2014 (Local Time) from KCQC Reporting Station
Scattered Clouds Scattered Clouds  
Wind Chill: 66°   Ceiling: Unl
Heat Index: 66°   Visibility: 10mi
Dew Point: 37°   Wind: 10mph
Humidity: 34%   Direction: 100°E
Pressure: 30.19"   Gusts: 22mph
Location:  35.2352°N, 105.52°W
Report Text: KCQC 202153Z AUTO 10009G19KT 10SM FEW050 SCT095 19/03 A3019 RMK AO2 SLP149 T01890028
Loading
Personal Weather Stations






























Interactive Weather Map
Tropical Storm Tracking
New forecast layout! Learn more

10-Day Weather Forecast

Advertisements
Track Severe Weather on mobile